Terminal Aerodrome Forecast
Issued by NWS

Home | Current Version | Previous Version | Text Only | Print | Product List | Glossary On
Versions: 1 2 3 4 5 6 7 8 9 10 11 12 13 14 15 16 17
000
FTUS44 KLIX 242320
TAFHUM
TAF
KHUM 242320Z 2500/2524 14010KT P6SM SCT035
     FM250200 13005KT P6SM SCT080
     FM250900 VRB03KT P6SM BKN060
     FM251400 15007KT P6SM BKN035
     FM251800 15011KT P6SM SCT250=

USA.gov is the U.S. government's official web portal to all federal, state and local government web resources and services.